createdAt,value
2019-04-27T11:08:06.502Z,65.10
2019-04-27T11:11:11.511Z,44.60
2019-04-27T11:14:13.333Z,44.10
2019-04-27T11:17:12.888Z,44.30
2019-04-27T11:20:04.371Z,46.60
2019-04-27T11:23:06.611Z,45.10
2019-04-27T11:25:48.175Z,46.50
2019-04-27T11:28:48.643Z,46.20
2019-04-27T11:31:40.579Z,44.70
2019-04-27T11:34:48.599Z,44.70
2019-04-27T11:37:40.107Z,43.80
2019-04-27T11:40:31.642Z,43.60
2019-04-27T11:43:26.020Z,43.60
2019-04-27T11:47:00.581Z,52.30
2019-04-27T11:49:53.809Z,44.40
2019-04-27T11:52:46.678Z,45.90
2019-04-27T11:55:41.348Z,47.70
2019-04-27T11:58:35.091Z,49.90
2019-04-27T12:01:28.288Z,50.30
2019-04-27T12:04:21.830Z,50.50
2019-04-27T12:07:16.463Z,51.00
2019-04-27T12:10:08.818Z,51.10
2019-04-27T12:13:19.613Z,45.60
2019-04-27T12:16:15.624Z,45.60
2019-04-27T12:19:10.847Z,46.10
2019-04-27T12:22:03.635Z,46.00
2019-04-27T12:41:11.081Z,45.70
2019-04-27T12:44:03.947Z,46.50
2019-04-27T12:47:02.285Z,46.00
2019-04-27T12:49:50.653Z,45.80
2019-04-27T12:52:46.532Z,45.80
2019-04-27T12:56:06.192Z,45.80
2019-04-27T12:59:09.016Z,46.30
2019-04-27T13:02:03.141Z,47.10
2019-04-27T13:04:56.767Z,47.60
2019-04-27T13:07:50.137Z,48.00
2019-04-27T13:10:43.980Z,48.00
2019-04-27T13:13:38.902Z,48.90
2019-04-27T13:16:31.293Z,49.60
2019-04-27T13:19:23.489Z,49.80
2019-04-27T13:22:16.554Z,50.30
2019-04-27T13:25:07.991Z,50.90
2019-04-27T13:28:01.072Z,51.30
2019-04-27T13:30:55.840Z,51.30
2019-04-27T13:33:47.040Z,51.20
2019-04-27T13:36:40.674Z,51.40
2019-04-27T13:39:35.944Z,51.70
2019-04-27T13:42:31.475Z,51.60
2019-04-27T13:45:46.621Z,52.00
2019-04-27T13:48:56.619Z,52.20
2019-04-27T13:51:57.519Z,52.50
2019-04-27T13:54:53.268Z,52.70
2019-04-27T13:57:50.405Z,52.80
2019-04-27T14:00:42.498Z,53.00
2019-04-27T14:03:37.803Z,53.00
2019-04-27T14:06:32.710Z,53.10
2019-04-27T14:09:27.712Z,53.60
2019-04-27T14:12:25.266Z,53.30
2019-04-27T14:15:19.102Z,53.30
2019-04-27T14:23:44.638Z,50.60
2019-04-27T14:26:35.925Z,51.20
2019-04-27T14:29:33.493Z,51.30
2019-04-27T14:32:28.715Z,51.10
2019-04-27T14:35:24.373Z,51.30
2019-04-27T14:38:19.254Z,51.70
2019-04-27T14:41:15.336Z,51.50
2019-04-27T14:44:10.697Z,52.20
2019-04-27T14:47:05.231Z,53.20
2019-04-27T14:49:58.977Z,53.50
2019-04-27T14:52:52.996Z,53.90
2019-04-27T14:55:48.874Z,54.60
2019-04-27T14:58:44.172Z,54.60
2019-04-27T15:01:40.073Z,54.90
2019-04-27T15:04:33.813Z,55.40
2019-04-27T15:07:28.656Z,55.90
2019-04-27T15:10:27.022Z,56.20
2019-04-27T15:13:18.939Z,56.40
2019-04-27T15:16:12.988Z,56.60
2019-04-27T15:19:13.157Z,56.60
2019-04-27T15:22:06.835Z,56.70
2019-04-27T15:25:13.640Z,56.70
2019-04-27T15:28:01.407Z,56.70
2019-04-27T15:31:22.774Z,56.90
2019-04-27T15:34:27.518Z,56.90
2019-04-27T15:37:48.067Z,56.80
2019-04-27T15:40:58.255Z,57.00
2019-04-27T15:43:53.470Z,57.00
2019-04-27T15:46:48.642Z,57.00
2019-04-27T15:49:49.730Z,56.90
2019-04-27T15:52:39.601Z,57.00
2019-04-27T15:55:38.867Z,57.10
